createdAt,value
2018-12-13T00:00:12.786Z,-2.36
2018-12-13T00:01:12.766Z,-2.43
2018-12-13T00:02:12.745Z,-2.32
2018-12-13T00:03:12.724Z,-2.32
2018-12-13T00:04:12.707Z,-2.3
2018-12-13T00:05:12.688Z,-2.47
2018-12-13T00:06:12.673Z,-2.32
2018-12-13T00:07:12.647Z,-2.5
2018-12-13T00:08:12.628Z,-2.37
2018-12-13T00:09:12.611Z,-2.49
2018-12-13T00:10:12.586Z,-2.53
2018-12-13T00:11:12.565Z,-2.37
2018-12-13T00:12:12.296Z,-2.4
2018-12-13T00:13:12.520Z,-2.49
2018-12-13T00:14:12.514Z,-2.49
2018-12-13T00:15:12.484Z,-2.46
2018-12-13T00:16:12.211Z,-2.49
2018-12-13T00:17:12.446Z,-2.47
2018-12-13T00:18:12.419Z,-2.5
2018-12-13T00:19:12.409Z,-2.49
2018-12-13T00:20:12.383Z,-2.42
2018-12-13T00:21:12.363Z,-2.53
2018-12-13T00:22:12.353Z,-2.49
2018-12-13T00:23:12.324Z,-2.5
2018-12-13T00:24:12.305Z,-2.44
2018-12-13T00:25:12.285Z,-2.49
2018-12-13T00:26:12.266Z,-2.49
2018-12-13T00:27:12.239Z,-2.47
2018-12-13T00:28:12.217Z,-2.64
2018-12-13T00:29:12.197Z,-2.62
2018-12-13T00:30:12.180Z,-2.67
2018-12-13T00:31:12.160Z,-2.61
2018-12-13T00:32:12.141Z,-2.58
2018-12-13T00:33:12.120Z,-2.6
2018-12-13T00:34:12.098Z,-2.67
2018-12-13T00:35:11.832Z,-2.61
2018-12-13T00:36:12.062Z,-2.67
2018-12-13T00:37:11.792Z,-2.58
2018-12-13T00:38:12.024Z,-2.65
2018-12-13T00:39:11.752Z,-2.64
2018-12-13T00:40:11.732Z,-2.78
2018-12-13T00:41:11.707Z,-2.75
2018-12-13T00:42:11.936Z,-2.72
2018-12-13T00:43:11.915Z,-2.85
2018-12-13T00:44:11.648Z,-2.79
2018-12-13T00:45:11.881Z,-2.85
2018-12-13T00:46:11.871Z,-2.83
2018-12-13T00:47:11.989Z,-2.83
2018-12-13T00:48:11.813Z,-2.88
2018-12-13T00:49:11.800Z,-2.97
2018-12-13T00:50:11.775Z,-2.93
2018-12-13T00:51:11.756Z,-3.04
2018-12-13T00:52:11.736Z,-3.14
2018-12-13T00:53:24.460Z,-3.14
2018-12-13T00:54:11.458Z,-3.18
2018-12-13T00:55:11.687Z,-3.19
2018-12-13T00:56:11.673Z,-3.3
2018-12-13T00:57:11.638Z,-3.33
2018-12-13T00:58:11.694Z,-3.39
2018-12-13T00:59:11.599Z,-3.4
2018-12-13T01:00:11.333Z,-3.5
2018-12-13T01:01:11.559Z,-3.47
2018-12-13T01:02:11.292Z,-3.48
2018-12-13T01:03:11.518Z,-3.6
2018-12-13T01:04:11.501Z,-3.61
2018-12-13T01:05:11.476Z,-3.61
2018-12-13T01:06:10.960Z,-3.75
2018-12-13T01:07:11.437Z,-3.68
2018-12-13T01:08:11.418Z,-3.68
2018-12-13T01:09:11.398Z,-3.87
2018-12-13T01:10:11.431Z,-3.8
2018-12-13T01:11:11.172Z,-3.8
2018-12-13T01:12:11.341Z,-3.9
2018-12-13T01:13:11.325Z,-3.91
2018-12-13T01:14:11.295Z,-3.96
2018-12-13T01:15:11.273Z,-4
2018-12-13T01:16:11.255Z,-4.04
2018-12-13T01:17:11.234Z,-4.15
2018-12-13T01:18:11.210Z,-4.14
2018-12-13T01:19:11.213Z,-4.12
2018-12-13T01:20:11.173Z,-4.22
2018-12-13T01:21:11.151Z,-4.22
2018-12-13T01:22:11.131Z,-4.22
2018-12-13T01:23:11.111Z,-4.23
2018-12-13T01:24:11.087Z,-4.32
2018-12-13T01:25:11.064Z,-4.34
2018-12-13T01:26:11.048Z,-4.41
2018-12-13T01:27:11.030Z,-4.48
2018-12-13T01:28:11.012Z,-4.44
2018-12-13T01:29:10.998Z,-4.51
2018-12-13T01:30:10.715Z,-4.59
2018-12-13T01:31:10.696Z,-4.54
2018-12-13T01:32:10.921Z,-4.62
2018-12-13T01:33:10.905Z,-4.61
2018-12-13T01:34:10.876Z,-4.61
2018-12-13T01:35:10.853Z,-4.61
2018-12-13T01:36:10.836Z,-4.61
2018-12-13T01:37:10.813Z,-4.66
2018-12-13T01:38:10.794Z,-4.75
2018-12-13T01:39:10.525Z,-4.75
2018-12-13T01:40:10.755Z,-4.76
2018-12-13T01:41:10.485Z,-4.69
2018-12-13T01:42:10.715Z,-4.68
2018-12-13T01:43:10.689Z,-4.69
2018-12-13T01:44:10.671Z,-4.72
2018-12-13T01:45:10.652Z,-4.72
2018-12-13T01:46:10.624Z,-4.69
2018-12-13T01:47:10.606Z,-4.75
2018-12-13T01:48:10.138Z,-4.73
2018-12-13T01:49:10.565Z,-4.73
2018-12-13T01:50:10.545Z,-4.71
2018-12-13T01:51:10.518Z,-4.73
2018-12-13T01:52:10.250Z,-4.72
2018-12-13T01:53:10.478Z,-4.75
2018-12-13T01:54:10.454Z,-4.86
2018-12-13T01:55:10.434Z,-4.9
2018-12-13T01:56:10.411Z,-4.82
2018-12-13T01:57:10.149Z,-4.89
2018-12-13T01:58:10.376Z,-4.92
2018-12-13T01:59:10.350Z,-5
2018-12-13T02:00:10.335Z,-4.97
2018-12-13T02:01:10.310Z,-4.98
2018-12-13T02:02:10.285Z,-5.01
2018-12-13T02:03:10.266Z,-5.05
2018-12-13T02:04:09.998Z,-5.08
2018-12-13T02:05:10.226Z,-5.07
2018-12-13T02:06:10.211Z,-5.11
2018-12-13T02:07:10.195Z,-5.04
2018-12-13T02:08:10.158Z,-5.11
2018-12-13T02:09:10.148Z,-5.1
2018-12-13T02:10:10.120Z,-5.23
2018-12-13T02:11:10.091Z,-5.23
2018-12-13T02:12:10.073Z,-5.35
2018-12-13T02:13:10.054Z,-5.31
2018-12-13T02:14:10.027Z,-5.29
2018-12-13T02:15:10.014Z,-5.27
2018-12-13T02:16:09.988Z,-5.3
2018-12-13T02:17:09.964Z,-5.4
2018-12-13T02:18:09.945Z,-5.38
2018-12-13T02:19:09.674Z,-5.42
2018-12-13T02:20:09.908Z,-5.41
2018-12-13T02:21:09.879Z,-5.51
2018-12-13T02:22:09.865Z,-5.48
2018-12-13T02:23:09.851Z,-5.47
2018-12-13T02:24:09.818Z,-5.5
2018-12-13T02:25:09.549Z,-5.47
2018-12-13T02:26:09.776Z,-5.48
2018-12-13T02:27:09.747Z,-5.59
2018-12-13T02:28:09.731Z,-5.65
2018-12-13T02:29:09.710Z,-5.69
2018-12-13T02:30:09.687Z,-5.66
2018-12-13T02:31:09.670Z,-5.69
2018-12-13T02:32:09.662Z,-5.68
2018-12-13T02:33:09.624Z,-5.76
2018-12-13T02:34:09.356Z,-5.73
2018-12-13T02:35:09.583Z,-5.74
2018-12-13T02:36:09.598Z,-5.8
2018-12-13T02:37:11.074Z,-5.79
2018-12-13T02:38:09.522Z,-5.76
2018-12-13T02:39:09.581Z,-5.81
2018-12-13T02:40:09.479Z,-5.87
2018-12-13T02:41:09.453Z,-5.92
2018-12-13T02:42:09.429Z,-5.92
2018-12-13T02:43:09.171Z,-5.97
2018-12-13T02:44:09.384Z,-5.87
2018-12-13T02:45:09.382Z,-5.97
2018-12-13T02:46:09.350Z,-5.95
2018-12-13T02:47:09.332Z,-5.95
2018-12-13T02:48:09.303Z,-5.97
2018-12-13T02:49:09.283Z,-5.87
2018-12-13T02:50:09.252Z,-5.95
2018-12-13T02:51:09.239Z,-5.98
2018-12-13T02:52:08.960Z,-5.89
2018-12-13T02:53:09.190Z,-6.01
2018-12-13T02:54:09.173Z,-6.05
2018-12-13T02:55:08.912Z,-6.02
2018-12-13T02:56:09.129Z,-5.99
2018-12-13T02:57:09.104Z,-6.05
2018-12-13T02:58:09.086Z,-6.02
2018-12-13T02:59:08.565Z,-5.99
2018-12-13T03:00:09.045Z,-6.02
2018-12-13T03:01:08.770Z,-6.15
2018-12-13T03:02:08.995Z,-6.15
2018-12-13T03:03:08.978Z,-6.05
2018-12-13T03:04:08.968Z,-6.02
2018-12-13T03:05:08.687Z,-6.04
2018-12-13T03:06:08.910Z,-6.13
2018-12-13T03:07:16.002Z,-6.02
2018-12-13T03:08:08.875Z,-6.01
2018-12-13T03:09:08.843Z,-6.02
2018-12-13T03:10:08.817Z,-6.02
2018-12-13T03:11:08.868Z,-5.95
2018-12-13T03:12:08.789Z,-5.97
2018-12-13T03:13:08.510Z,-5.95
2018-12-13T03:14:08.736Z,-5.98
2018-12-13T03:15:08.719Z,-5.95
2018-12-13T03:16:08.686Z,-5.92
2018-12-13T03:17:08.671Z,-5.92
2018-12-13T03:18:08.676Z,-6.04
2018-12-13T03:19:08.620Z,-5.94
2018-12-13T03:20:08.615Z,-5.92
2018-12-13T03:21:08.591Z,-5.97
2018-12-13T03:22:08.560Z,-5.95
2018-12-13T03:23:08.537Z,-5.98
2018-12-13T03:24:08.674Z,-5.99
2018-12-13T03:25:08.494Z,-6.07
2018-12-13T03:26:08.479Z,-6.08
2018-12-13T03:27:08.452Z,-6.16
2018-12-13T03:28:08.429Z,-6.2
2018-12-13T03:29:08.432Z,-6.2
2018-12-13T03:30:08.440Z,-6.1
2018-12-13T03:31:08.120Z,-6.2
2018-12-13T03:32:08.358Z,-6.2
2018-12-13T03:33:08.346Z,-6.22
2018-12-13T03:34:08.294Z,-6.28
2018-12-13T03:35:08.270Z,-6.2
2018-12-13T03:36:08.282Z,-6.18
2018-12-13T03:37:08.230Z,-6.23
2018-12-13T03:38:08.207Z,-6.3
2018-12-13T03:39:08.190Z,-6.31
2018-12-13T03:40:08.165Z,-6.28
2018-12-13T03:41:08.142Z,-6.3
2018-12-13T03:42:08.120Z,-6.26
2018-12-13T03:43:07.846Z,-6.3
2018-12-13T03:44:08.078Z,-6.34
2018-12-13T03:45:08.052Z,-6.31
2018-12-13T03:46:08.032Z,-6.36
2018-12-13T03:47:08.003Z,-6.4
2018-12-13T03:48:07.984Z,-6.37
2018-12-13T03:49:07.976Z,-6.37
2018-12-13T03:50:07.947Z,-6.38
2018-12-13T03:51:07.923Z,-6.37
2018-12-13T03:52:07.905Z,-6.36
2018-12-13T03:53:07.890Z,-6.4
2018-12-13T03:54:07.885Z,-6.43
2018-12-13T03:55:07.837Z,-6.46
2018-12-13T03:56:07.808Z,-6.43
2018-12-13T03:57:07.871Z,-6.44
2018-12-13T03:58:07.774Z,-6.52
2018-12-13T03:59:07.749Z,-6.49
2018-12-13T04:00:07.724Z,-6.49
2018-12-13T04:01:07.730Z,-6.51
2018-12-13T04:02:07.685Z,-6.52
2018-12-13T04:03:07.656Z,-6.54
2018-12-13T04:04:07.632Z,-6.55
2018-12-13T04:05:07.611Z,-6.59
2018-12-13T04:06:07.615Z,-6.6
2018-12-13T04:07:07.573Z,-6.58
2018-12-13T04:08:07.307Z,-6.55
2018-12-13T04:09:07.532Z,-6.59
2018-12-13T04:10:07.517Z,-6.58
2018-12-13T04:11:07.477Z,-6.55
2018-12-13T04:12:07.468Z,-6.55
2018-12-13T04:13:07.435Z,-6.67
2018-12-13T04:14:07.427Z,-6.62
2018-12-13T04:15:07.386Z,-6.68
2018-12-13T04:16:07.363Z,-6.65
2018-12-13T04:17:07.097Z,-6.67
2018-12-13T04:18:07.335Z,-6.65
2018-12-13T04:19:07.309Z,-6.81
2018-12-13T04:20:07.028Z,-6.77
2018-12-13T04:21:07.266Z,-6.81
2018-12-13T04:22:07.231Z,-6.78
2018-12-13T04:23:07.230Z,-6.78
2018-12-13T04:24:07.189Z,-6.92
2018-12-13T04:25:06.917Z,-6.84
2018-12-13T04:26:07.143Z,-6.84
2018-12-13T04:27:07.122Z,-6.8
2018-12-13T04:28:07.106Z,-6.81
2018-12-13T04:29:07.082Z,-6.97
2018-12-13T04:30:07.050Z,-6.89
2018-12-13T04:31:07.047Z,-6.94
2018-12-13T04:32:07.075Z,-6.94
2018-12-13T04:33:06.988Z,-6.94
2018-12-13T04:34:06.990Z,-6.88
2018-12-13T04:35:06.944Z,-6.92
2018-12-13T04:36:06.923Z,-6.83
2018-12-13T04:37:06.896Z,-6.89
2018-12-13T04:38:06.628Z,-6.89
2018-12-13T04:39:06.860Z,-6.88
2018-12-13T04:40:06.884Z,-6.98
2018-12-13T04:41:06.813Z,-6.91
2018-12-13T04:42:06.786Z,-6.87
2018-12-13T04:43:06.790Z,-6.88
2018-12-13T04:44:06.741Z,-7.01
2018-12-13T04:45:06.755Z,-6.87
2018-12-13T04:46:06.695Z,-6.87
2018-12-13T04:47:06.426Z,-6.87
2018-12-13T04:48:06.657Z,-6.97
2018-12-13T04:49:06.634Z,-6.95
2018-12-13T04:50:06.764Z,-6.78
2018-12-13T04:51:06.584Z,-6.81
2018-12-13T04:52:06.323Z,-6.83
2018-12-13T04:53:06.540Z,-6.83
2018-12-13T04:54:06.527Z,-6.95
2018-12-13T04:55:06.497Z,-6.91
2018-12-13T04:56:06.472Z,-6.91
2018-12-13T04:57:06.200Z,-6.97
2018-12-13T04:58:06.431Z,-6.97
2018-12-13T04:59:06.404Z,-6.88
2018-12-13T05:00:06.382Z,-6.91
2018-12-13T05:01:06.358Z,-7.01
2018-12-13T05:02:06.340Z,-6.94
2018-12-13T05:03:06.320Z,-6.88
2018-12-13T05:04:06.045Z,-6.95
2018-12-13T05:05:06.270Z,-6.98
2018-12-13T05:06:06.250Z,-6.97
2018-12-13T05:07:06.230Z,-6.92
2018-12-13T05:08:06.200Z,-6.91
2018-12-13T05:09:06.181Z,-6.89
2018-12-13T05:10:06.159Z,-6.92
2018-12-13T05:11:06.133Z,-6.94
2018-12-13T05:12:06.112Z,-6.87
2018-12-13T05:13:06.087Z,-6.88
2018-12-13T05:14:06.069Z,-6.88
2018-12-13T05:15:06.045Z,-6.83
2018-12-13T05:16:06.025Z,-6.88
2018-12-13T05:17:06.007Z,-6.87
2018-12-13T05:18:05.976Z,-6.88
2018-12-13T05:19:05.951Z,-6.98
2018-12-13T05:20:05.936Z,-6.89
2018-12-13T05:21:05.665Z,-7.01
2018-12-13T05:22:05.886Z,-6.95
2018-12-13T05:23:05.866Z,-6.95
2018-12-13T05:24:05.598Z,-7.02
2018-12-13T05:25:05.821Z,-7.05
2018-12-13T05:26:05.802Z,-6.98
2018-12-13T05:27:05.777Z,-6.99
2018-12-13T05:28:05.752Z,-7.13
2018-12-13T05:29:05.749Z,-7.01
2018-12-13T05:30:05.458Z,-7.13
2018-12-13T05:31:05.685Z,-7.17
2018-12-13T05:32:05.666Z,-7.15
2018-12-13T05:33:05.389Z,-7.1
2018-12-13T05:34:05.631Z,-6.99
2018-12-13T05:35:05.595Z,-7.07
2018-12-13T05:36:05.324Z,-7.07
2018-12-13T05:37:05.560Z,-7.07
2018-12-13T05:38:05.276Z,-6.99
2018-12-13T05:39:05.510Z,-7.02
2018-12-13T05:40:05.236Z,-7.12
2018-12-13T05:41:05.520Z,-7.09
2018-12-13T05:42:04.947Z,-7.13
2018-12-13T05:43:05.418Z,-7.16
2018-12-13T05:44:05.401Z,-7.12
2018-12-13T05:45:05.374Z,-7.22
2018-12-13T05:46:05.100Z,-7.3
2018-12-13T05:47:05.335Z,-7.27
2018-12-13T05:48:05.305Z,-7.27
2018-12-13T05:49:05.279Z,-7.27
2018-12-13T05:50:05.263Z,-7.27
2018-12-13T05:51:05.234Z,-7.33
2018-12-13T05:52:05.033Z,-7.28
2018-12-13T05:53:05.187Z,-7.33
2018-12-13T05:54:05.164Z,-7.37
2018-12-13T05:55:05.141Z,-7.51
2018-12-13T05:56:05.123Z,-7.44
2018-12-13T05:57:05.143Z,-7.45
2018-12-13T05:58:05.082Z,-7.4
2018-12-13T05:59:04.806Z,-7.48
2018-12-13T06:00:05.034Z,-7.47
2018-12-13T06:01:05.008Z,-7.44
2018-12-13T06:02:04.987Z,-7.42
2018-12-13T06:03:04.962Z,-7.44
2018-12-13T06:04:04.946Z,-7.42
2018-12-13T06:05:04.921Z,-7.45
2018-12-13T06:06:04.896Z,-7.45
2018-12-13T06:07:04.627Z,-7.48
2018-12-13T06:08:04.850Z,-7.52
2018-12-13T06:09:04.830Z,-7.44
2018-12-13T06:10:04.559Z,-7.65
2018-12-13T06:11:04.783Z,-7.62
2018-12-13T06:12:04.772Z,-7.62
2018-12-13T06:13:04.746Z,-7.65
2018-12-13T06:14:04.720Z,-7.65
2018-12-13T06:15:04.693Z,-7.63
2018-12-13T06:16:04.677Z,-7.65
2018-12-13T06:17:04.643Z,-7.62
2018-12-13T06:18:09.341Z,-7.65
2018-12-13T06:19:04.610Z,-7.62
2018-12-13T06:20:04.576Z,-7.62
2018-12-13T06:21:04.317Z,-7.59
2018-12-13T06:22:04.534Z,-7.7
2018-12-13T06:23:04.526Z,-7.7
2018-12-13T06:24:04.488Z,-7.69
2018-12-13T06:25:04.476Z,-7.72
2018-12-13T06:26:04.446Z,-7.65
2018-12-13T06:27:04.430Z,-7.69
2018-12-13T06:28:04.398Z,-7.62
2018-12-13T06:29:04.375Z,-7.67
2018-12-13T06:30:09.781Z,-7.65
2018-12-13T06:31:04.083Z,-7.67
2018-12-13T06:32:04.305Z,-7.58
2018-12-13T06:33:04.282Z,-7.62
2018-12-13T06:34:04.261Z,-7.63
2018-12-13T06:35:04.239Z,-7.56
2018-12-13T06:36:04.211Z,-7.59
2018-12-13T06:37:04.196Z,-7.62
2018-12-13T06:38:06.222Z,-7.59
2018-12-13T06:39:04.145Z,-7.63
2018-12-13T06:40:04.120Z,-7.63
2018-12-13T06:41:04.100Z,-7.58
2018-12-13T06:42:04.078Z,-7.59
2018-12-13T06:43:04.056Z,-7.62
2018-12-13T06:44:03.788Z,-7.62
2018-12-13T06:45:04.017Z,-7.59
2018-12-13T06:46:03.823Z,-7.59
2018-12-13T06:47:03.965Z,-7.59
2018-12-13T06:48:03.939Z,-7.52
2018-12-13T06:49:03.916Z,-7.54
2018-12-13T06:50:03.900Z,-7.56
2018-12-13T06:51:03.867Z,-7.62
2018-12-13T06:52:03.606Z,-7.59
2018-12-13T06:53:03.578Z,-7.62
2018-12-13T06:54:03.813Z,-7.65
2018-12-13T06:55:03.780Z,-7.66
2018-12-13T06:56:03.512Z,-7.76
2018-12-13T06:57:03.737Z,-7.7
2018-12-13T06:58:03.712Z,-7.66
2018-12-13T06:59:03.697Z,-7.7
2018-12-13T07:00:03.675Z,-7.7
2018-12-13T07:01:03.700Z,-7.73
2018-12-13T07:02:03.621Z,-7.75
2018-12-13T07:03:03.596Z,-7.7
2018-12-13T07:04:03.575Z,-7.7
2018-12-13T07:05:03.303Z,-7.73
2018-12-13T07:06:03.535Z,-7.76
2018-12-13T07:07:03.505Z,-7.69
2018-12-13T07:08:09.887Z,-7.72
2018-12-13T07:09:03.457Z,-7.69
2018-12-13T07:10:03.444Z,-7.7
2018-12-13T07:11:03.414Z,-7.67
2018-12-13T07:12:03.395Z,-7.67
2018-12-13T07:13:03.372Z,-7.66
2018-12-13T07:14:03.350Z,-7.7
2018-12-13T07:15:03.326Z,-7.72
2018-12-13T07:16:03.312Z,-7.69
2018-12-13T07:17:03.034Z,-7.67
2018-12-13T07:18:03.255Z,-7.77
2018-12-13T07:19:03.232Z,-7.73
2018-12-13T07:20:03.210Z,-7.75
2018-12-13T07:21:03.194Z,-7.76
2018-12-13T07:22:03.179Z,-7.76
2018-12-13T07:23:03.150Z,-7.76
2018-12-13T07:24:02.874Z,-7.75
2018-12-13T07:25:02.849Z,-7.76
2018-12-13T07:26:03.081Z,-7.81
2018-12-13T07:27:03.052Z,-7.77
2018-12-13T07:28:03.027Z,-7.81
2018-12-13T07:29:03.072Z,-7.72
2018-12-13T07:30:02.735Z,-7.8
2018-12-13T07:31:02.967Z,-7.8
2018-12-13T07:32:02.936Z,-7.72
2018-12-13T07:33:02.916Z,-7.72
2018-12-13T07:34:02.953Z,-7.65
2018-12-13T07:35:06.126Z,-7.72
2018-12-13T07:36:02.844Z,-7.69
2018-12-13T07:37:02.820Z,-7.7
2018-12-13T07:38:02.551Z,-7.56
2018-12-13T07:39:02.620Z,-7.7
2018-12-13T07:40:02.514Z,-7.62
2018-12-13T07:41:02.735Z,-7.62
2018-12-13T07:42:02.459Z,-7.65
2018-12-13T07:43:02.686Z,-7.63
2018-12-13T07:44:02.658Z,-7.63
2018-12-13T07:45:02.393Z,-7.67
2018-12-13T07:46:02.620Z,-7.75
2018-12-13T07:47:02.601Z,-7.67
2018-12-13T07:48:02.574Z,-7.67
2018-12-13T07:49:02.573Z,-7.72
2018-12-13T07:50:02.525Z,-7.69
2018-12-13T07:51:02.606Z,-7.69
2018-12-13T07:52:02.496Z,-7.55
2018-12-13T07:53:02.473Z,-7.59
2018-12-13T07:54:02.437Z,-7.69
2018-12-13T07:55:02.164Z,-7.65
2018-12-13T07:56:02.395Z,-7.65
2018-12-13T07:57:02.367Z,-7.58
2018-12-13T07:58:02.350Z,-7.58
2018-12-13T07:59:02.080Z,-7.63
2018-12-13T08:00:02.304Z,-7.51
2018-12-13T08:01:02.275Z,-7.49
2018-12-13T08:02:02.253Z,-7.49
2018-12-13T08:03:02.232Z,-7.4
2018-12-13T08:04:02.209Z,-7.48
2018-12-13T08:05:02.188Z,-7.36
2018-12-13T08:06:01.914Z,-7.31
2018-12-13T08:07:02.152Z,-7.26
2018-12-13T08:08:02.208Z,-7.13
2018-12-13T08:09:02.101Z,-7.1
2018-12-13T08:10:02.077Z,-7.07
2018-12-13T08:11:02.051Z,-7.1
2018-12-13T08:12:01.778Z,-7.06
2018-12-13T08:13:02.005Z,-6.98
2018-12-13T08:14:01.981Z,-6.95
2018-12-13T08:15:01.956Z,-7.07
2018-12-13T08:16:01.687Z,-6.95
2018-12-13T08:17:01.910Z,-6.94
2018-12-13T08:18:01.893Z,-7.06
2018-12-13T08:19:01.619Z,-6.94
2018-12-13T08:20:01.839Z,-6.98
2018-12-13T08:21:01.819Z,-6.99
2018-12-13T08:22:01.803Z,-6.94
2018-12-13T08:23:02.032Z,-6.89
2018-12-13T08:24:01.753Z,-6.94
2018-12-13T08:25:01.734Z,-6.99
2018-12-13T08:26:01.721Z,-6.95
2018-12-13T08:27:01.683Z,-6.94
2018-12-13T08:28:01.982Z,-6.92
2018-12-13T08:29:01.400Z,-6.97
2018-12-13T08:30:01.629Z,-6.95
2018-12-13T08:31:01.596Z,-6.89
2018-12-13T08:32:01.325Z,-6.91
2018-12-13T08:33:01.550Z,-6.95
2018-12-13T08:34:01.538Z,-6.88
2018-12-13T08:35:01.517Z,-6.89
2018-12-13T08:36:01.484Z,-6.84
2018-12-13T08:37:01.217Z,-6.91
2018-12-13T08:38:01.442Z,-6.99
2018-12-13T08:39:01.414Z,-6.84
2018-12-13T08:40:01.409Z,-6.98
2018-12-13T08:41:01.390Z,-6.97
2018-12-13T08:42:00.850Z,-6.97
2018-12-13T08:43:01.327Z,-6.87
2018-12-13T08:44:01.057Z,-6.89
2018-12-13T08:45:01.281Z,-6.81
2018-12-13T08:46:01.264Z,-6.8
2018-12-13T08:47:01.234Z,-6.83
2018-12-13T08:48:01.219Z,-6.76
2018-12-13T08:49:01.208Z,-6.78
2018-12-13T08:50:01.172Z,-6.74
2018-12-13T08:51:01.148Z,-6.67
2018-12-13T08:52:01.133Z,-6.68
2018-12-13T08:53:01.107Z,-6.67
2018-12-13T08:54:01.082Z,-6.63
2018-12-13T08:55:01.059Z,-6.6
2018-12-13T08:56:01.035Z,-6.62
2018-12-13T08:57:01.011Z,-6.6
2018-12-13T08:58:00.993Z,-6.55
2018-12-13T08:59:00.968Z,-6.49
2018-12-13T09:00:00.947Z,-6.49
2018-12-13T09:01:00.922Z,-6.52
2018-12-13T09:02:00.903Z,-6.41
2018-12-13T09:03:00.890Z,-6.43
2018-12-13T09:04:00.860Z,-6.41
2018-12-13T09:05:00.587Z,-6.33
2018-12-13T09:06:00.813Z,-6.37
2018-12-13T09:07:01.869Z,-6.34
2018-12-13T09:08:00.817Z,-6.31
2018-12-13T09:09:00.800Z,-6.26
2018-12-13T09:10:00.793Z,-6.26
2018-12-13T09:11:00.707Z,-6.31
2018-12-13T09:12:00.679Z,-6.3
2018-12-13T09:13:00.662Z,-6.19
2018-12-13T09:14:00.893Z,-6.13
2018-12-13T09:15:00.616Z,-6.08
2018-12-13T09:16:00.589Z,-6.16
2018-12-13T09:17:00.321Z,-6.04
2018-12-13T09:18:00.547Z,-6.01
2018-12-13T09:19:00.528Z,-6.02
2018-12-13T09:20:00.506Z,-5.99
2018-12-13T09:21:00.477Z,-5.91
2018-12-13T09:22:00.461Z,-5.81
2018-12-13T09:23:00.443Z,-5.89
2018-12-13T09:24:00.421Z,-5.73
2018-12-13T09:25:00.392Z,-5.76
2018-12-13T09:26:00.121Z,-5.7
2018-12-13T09:27:00.351Z,-5.65
2018-12-13T09:28:00.327Z,-5.69
2018-12-13T09:29:00.300Z,-5.69
2018-12-13T09:30:00.274Z,-5.62
2018-12-13T09:31:00.259Z,-5.6
2018-12-13T09:31:59.989Z,-5.52
2018-12-13T09:32:59.970Z,-5.52
2018-12-13T09:34:00.191Z,-5.47
2018-12-13T09:35:00.173Z,-5.41
2018-12-13T09:36:00.149Z,-5.42
2018-12-13T09:37:00.130Z,-5.4
2018-12-13T09:38:00.105Z,-5.4
2018-12-13T09:39:00.081Z,-5.29
2018-12-13T09:40:00.061Z,-5.24
2018-12-13T09:41:00.041Z,-5.23
2018-12-13T09:42:00.018Z,-5.2
2018-12-13T09:43:00.003Z,-5.2
2018-12-13T09:43:59.974Z,-5.17
2018-12-13T09:44:59.953Z,-5.24
2018-12-13T09:45:59.935Z,-5.14
2018-12-13T09:46:59.911Z,-5.14
2018-12-13T09:47:59.639Z,-5.07
2018-12-13T09:48:59.621Z,-5.08
2018-12-13T09:49:59.840Z,-5.02
2018-12-13T09:50:59.819Z,-4.94
2018-12-13T09:51:59.801Z,-4.82
2018-12-13T09:52:59.785Z,-4.84
2018-12-13T09:53:59.761Z,-4.92
2018-12-13T09:55:05.422Z,-4.72
2018-12-13T09:55:59.711Z,-4.71
2018-12-13T09:56:59.689Z,-4.68
2018-12-13T09:57:59.666Z,-4.71
2018-12-13T09:58:59.649Z,-4.65
2018-12-13T09:59:59.633Z,-4.54
2018-12-13T10:00:59.603Z,-4.66
2018-12-13T10:01:59.593Z,-4.68
2018-12-13T10:02:59.565Z,-4.53
2018-12-13T10:03:59.543Z,-4.61
2018-12-13T10:04:59.596Z,-4.57
2018-12-13T10:05:59.497Z,-4.65
2018-12-13T10:06:59.480Z,-4.57
2018-12-13T10:07:59.451Z,-4.62
2018-12-13T10:08:59.430Z,-4.54
2018-12-13T10:09:59.411Z,-4.65
2018-12-13T10:10:59.387Z,-4.55
2018-12-13T10:11:59.372Z,-4.57
2018-12-13T10:12:59.409Z,-4.54
2018-12-13T10:13:59.325Z,-4.53
2018-12-13T10:14:59.305Z,-4.41
2018-12-13T10:15:59.296Z,-4.47
2018-12-13T10:16:59.267Z,-4.45
2018-12-13T10:17:59.246Z,-4.5
2018-12-13T10:18:59.219Z,-4.41
2018-12-13T10:19:59.198Z,-4.3
2018-12-13T10:20:59.178Z,-4.34
2018-12-13T10:21:59.158Z,-4.22
2018-12-13T10:22:59.140Z,-4.22
2018-12-13T10:23:59.116Z,-4.23
2018-12-13T10:24:59.094Z,-4.14
2018-12-13T10:26:04.376Z,-4.05
2018-12-13T10:26:59.057Z,-4.11
2018-12-13T10:27:59.035Z,-4.05
2018-12-13T10:28:58.761Z,-3.91
2018-12-13T10:29:58.999Z,-3.8
2018-12-13T10:30:58.726Z,-3.82
2018-12-13T10:31:58.947Z,-3.69
2018-12-13T10:32:58.928Z,-3.69
2018-12-13T10:33:58.916Z,-3.54
2018-12-13T10:34:58.884Z,-3.63
2018-12-13T10:35:58.859Z,-3.53
2018-12-13T10:36:58.853Z,-3.47
2018-12-13T10:37:58.825Z,-3.51
2018-12-13T10:38:58.799Z,-3.48
2018-12-13T10:39:58.775Z,-3.5
2018-12-13T10:40:58.765Z,-3.39
2018-12-13T10:41:58.747Z,-3.38
2018-12-13T10:42:58.719Z,-3.4
2018-12-13T10:43:58.725Z,-3.35
2018-12-13T10:44:58.676Z,-3.29
2018-12-13T10:45:58.651Z,-3.28
2018-12-13T10:46:59.052Z,-3.19
2018-12-13T10:47:58.610Z,-3.21
2018-12-13T10:48:58.595Z,-3.11
2018-12-13T10:49:58.573Z,-3.19
2018-12-13T10:50:58.551Z,-3.07
2018-12-13T10:51:58.285Z,-3.04
2018-12-13T10:52:58.511Z,-3.11
2018-12-13T10:53:58.487Z,-2.97
2018-12-13T10:54:58.466Z,-3.03
2018-12-13T10:55:58.447Z,-3.03
2018-12-13T10:56:58.429Z,-3
2018-12-13T10:57:58.404Z,-2.97
2018-12-13T10:58:58.383Z,-2.99
2018-12-13T10:59:58.366Z,-3.04
2018-12-13T11:00:58.340Z,-3
2018-12-13T11:01:58.321Z,-3.04
2018-12-13T11:02:58.299Z,-3.11
2018-12-13T11:03:58.280Z,-3.14
2018-12-13T11:04:58.257Z,-3.14
2018-12-13T11:05:57.992Z,-3.22
2018-12-13T11:06:57.970Z,-3.21
2018-12-13T11:07:58.198Z,-3.15
2018-12-13T11:09:03.942Z,-3.28
2018-12-13T11:09:58.163Z,-3.14
2018-12-13T11:10:58.133Z,-3.06
2018-12-13T11:11:57.869Z,-2.83
2018-12-13T11:12:58.106Z,-2.62
2018-12-13T11:13:58.084Z,-2.36
2018-12-13T11:14:58.062Z,-2.03
2018-12-13T11:15:58.034Z,-1.64
2018-12-13T11:16:58.017Z,-1.48
2018-12-13T11:17:57.998Z,-1.25
2018-12-13T11:18:57.976Z,-1.07
2018-12-13T11:19:57.958Z,-0.82
2018-12-13T11:20:57.933Z,-0.62
2018-12-13T11:21:57.670Z,-0.46
2018-12-13T11:22:57.892Z,-0.31
2018-12-13T11:23:57.872Z,-0.28
2018-12-13T11:24:57.853Z,-0.23
2018-12-13T11:25:57.593Z,-0.3
2018-12-13T11:26:57.816Z,-0.25
2018-12-13T11:27:57.796Z,-0.23
2018-12-13T11:28:57.782Z,-0.2
2018-12-13T11:29:57.513Z,-0.34
2018-12-13T11:30:57.489Z,-0.46
2018-12-13T11:31:57.725Z,-0.45
2018-12-13T11:32:57.706Z,-0.56
2018-12-13T11:33:57.686Z,-0.66
2018-12-13T11:34:57.666Z,-0.7
2018-12-13T11:35:57.643Z,-0.8
2018-12-13T11:36:57.685Z,-0.89
2018-12-13T11:37:57.610Z,-0.91
2018-12-13T11:38:57.341Z,-1.06
2018-12-13T11:39:57.566Z,-1.11
2018-12-13T11:40:57.551Z,-1.24
2018-12-13T11:41:57.526Z,-1.19
2018-12-13T11:42:57.508Z,-1.21
2018-12-13T11:43:57.489Z,-1.27
2018-12-13T11:44:57.477Z,-1.25
2018-12-13T11:45:57.451Z,-1.25
2018-12-13T11:46:57.438Z,-1.17
2018-12-13T11:47:57.165Z,-1.22
2018-12-13T11:48:57.392Z,-1.07
2018-12-13T11:49:57.373Z,-1.01
2018-12-13T11:50:57.359Z,-0.92
2018-12-13T11:51:57.336Z,-0.95
2018-12-13T11:52:57.320Z,-0.96
2018-12-13T11:53:57.294Z,-0.82
2018-12-13T11:54:57.280Z,-0.89
2018-12-13T11:55:57.255Z,-0.79
2018-12-13T11:56:57.241Z,-0.92
2018-12-13T11:57:57.229Z,-0.91
2018-12-13T11:58:57.206Z,-0.89
2018-12-13T11:59:56.934Z,-0.92
2018-12-13T12:00:57.168Z,-0.96
2018-12-13T12:01:56.893Z,-1.04
2018-12-13T12:02:57.187Z,-1.13
2018-12-13T12:03:57.104Z,-1.1
2018-12-13T12:04:57.092Z,-1.21
2018-12-13T12:05:57.072Z,-1.22
2018-12-13T12:06:57.045Z,-1.22
2018-12-13T12:07:57.030Z,-1.27
2018-12-13T12:08:57.006Z,-1.14
2018-12-13T12:09:56.989Z,-1.1
2018-12-13T12:10:56.724Z,-1.01
2018-12-13T12:11:56.700Z,-0.91
2018-12-13T12:12:56.939Z,-0.87
2018-12-13T12:13:56.921Z,-0.91
2018-12-13T12:14:56.890Z,-0.95
2018-12-13T12:15:56.877Z,-0.89
2018-12-13T12:16:56.855Z,-0.92
2018-12-13T12:17:56.833Z,-1.04
2018-12-13T12:18:56.814Z,-1.06
2018-12-13T12:19:56.797Z,-1.09
2018-12-13T12:20:56.779Z,-1.01
2018-12-13T12:21:56.508Z,-1.04
2018-12-13T12:22:56.739Z,-1.04
2018-12-13T12:23:56.759Z,-1.04
2018-12-13T12:24:56.699Z,-1.11
2018-12-13T12:25:56.677Z,-1.13
2018-12-13T12:26:56.418Z,-1.13
2018-12-13T12:27:56.643Z,-1.16
2018-12-13T12:28:56.622Z,-1.09
2018-12-13T12:29:56.611Z,-1.24
2018-12-13T12:30:56.583Z,-1.17
2018-12-13T12:31:56.567Z,-1.25
2018-12-13T12:32:56.295Z,-1.35
2018-12-13T12:33:56.526Z,-1.35
2018-12-13T12:34:56.504Z,-1.37
2018-12-13T12:35:56.550Z,-1.49
2018-12-13T12:36:56.219Z,-1.43
2018-12-13T12:37:56.442Z,-1.38
2018-12-13T12:38:56.431Z,-1.38
2018-12-13T12:39:56.411Z,-1.4
2018-12-13T12:40:56.139Z,-1.37
2018-12-13T12:41:56.380Z,-1.35
2018-12-13T12:42:56.349Z,-1.32
2018-12-13T12:43:56.079Z,-1.3
2018-12-13T12:44:56.061Z,-1.19
2018-12-13T12:45:56.291Z,-1.21
2018-12-13T12:46:56.266Z,-1.14
2018-12-13T12:47:56.250Z,-1.13
2018-12-13T12:48:56.236Z,-0.93
2018-12-13T12:49:56.214Z,-0.93
2018-12-13T12:50:56.206Z,-0.82
2018-12-13T12:51:55.938Z,-0.87
2018-12-13T12:52:56.163Z,-0.89
2018-12-13T12:53:56.137Z,-0.89
2018-12-13T12:54:56.116Z,-0.91